Time;durP1;ratioP1;P1;durP2;ratioP2;P2;SDS_P1;SDS_P2;PMS_P1;PMS_P2;Temp;Humidity;BMP_temperature;BMP_pressure;BME280_temperature;BME280_humidity;BME280_pressure;Samples;Min_cycle;Max_cycle;Signal;HPM_P1;HPM_P2
2023/01/21 00:02:09;;;;;;;37.05;17.15;;;-1.70;99.90;;;;;;5035759;28;20041;-80
2023/01/21 00:04:36;;;;;;;37.13;17.70;;;-1.70;99.90;;;;;;5035698;28;20474;-80
2023/01/21 00:07:06;;;;;;;36.17;17.27;;;-2.40;99.90;;;;;;5018239;28;20130;-80
2023/01/21 00:09:32;;;;;;;36.38;17.42;;;-1.10;99.90;;;;;;5018443;28;20046;-80
2023/01/21 00:12:01;;;;;;;41.13;16.40;;;-1.80;99.90;;;;;;5035906;28;20409;-79
2023/01/21 00:14:28;;;;;;;39.72;18.55;;;-1.70;99.90;;;;;;5035560;28;20041;-80
2023/01/21 00:16:53;;;;;;;43.97;18.13;;;-1.70;99.90;;;;;;5035247;28;20041;-79
2023/01/21 00:19:19;;;;;;;42.40;17.33;;;-1.70;99.90;;;;;;5017511;28;20041;-80
2023/01/21 00:21:45;;;;;;;38.42;17.77;;;-1.80;99.90;;;;;;5001587;28;20049;-80
2023/01/21 00:24:11;;;;;;;38.65;16.02;;;-1.70;99.90;;;;;;5017771;28;20051;-79
2023/01/21 00:26:36;;;;;;;37.83;15.93;;;-1.70;99.90;;;;;;5018533;28;20087;-80
2023/01/21 00:29:02;;;;;;;39.60;16.55;;;-2.20;99.90;;;;;;5035538;28;20045;-80
2023/01/21 00:31:28;;;;;;;37.88;16.45;;;-1.70;99.90;;;;;;5018086;28;20096;-80
2023/01/21 00:33:53;;;;;;;37.33;15.88;;;-1.70;99.90;;;;;;5035446;28;20045;-80
2023/01/21 00:36:21;;;;;;;34.88;16.00;;;-1.70;99.90;;;;;;5017249;28;20038;-80
2023/01/21 00:38:50;;;;;;;38.45;17.75;;;-1.80;99.90;;;;;;5017855;28;20044;-79
2023/01/21 00:41:16;;;;;;;51.28;18.75;;;-1.80;99.90;;;;;;5035072;28;20041;-80
2023/01/21 00:43:42;;;;;;;36.30;15.90;;;-1.80;99.90;;;;;;5034978;28;20509;-80
2023/01/21 00:46:09;;;;;;;41.33;17.85;;;-1.80;99.90;;;;;;5017410;28;20602;-79
2023/01/21 00:48:35;;;;;;;35.78;16.85;;;-1.80;99.90;;;;;;5034679;28;20485;-79
2023/01/21 00:51:01;;;;;;;42.90;17.17;;;-1.70;99.90;;;;;;5017339;28;20113;-80
2023/01/21 00:53:29;;;;;;;43.50;16.45;;;-1.70;99.90;;;;;;5034898;28;20111;-80
2023/01/21 00:56:03;;;;;;;45.47;18.45;;;-1.60;99.90;;;;;;5034596;28;20103;-80
2023/01/21 00:58:29;;;;;;;42.80;18.25;;;-1.60;99.90;;;;;;5034387;28;20048;-80
2023/01/21 01:01:07;;;;;;;50.65;19.25;;;-1.50;99.90;;;;;;5034099;28;20046;-80
2023/01/21 01:03:34;;;;;;;43.22;19.42;;;-0.90;99.90;;;;;;5017021;28;20038;-80
2023/01/21 01:06:05;;;;;;;47.15;19.48;;;-1.50;99.90;;;;;;5035050;28;20042;-80
2023/01/21 01:08:31;;;;;;;48.35;19.45;;;-1.50;99.90;;;;;;5017231;28;20390;-79
2023/01/21 01:10:57;;;;;;;51.22;19.02;;;-2.10;99.90;;;;;;5034494;28;20049;-80
2023/01/21 01:13:23;;;;;;;37.53;16.55;;;-1.40;99.90;;;;;;5034397;28;20049;-80
2023/01/21 01:15:51;;;;;;;49.50;19.38;;;-1.40;99.90;;;;;;5034407;28;20046;-80
2023/01/21 01:18:17;;;;;;;45.45;18.90;;;-1.40;99.90;;;;;;5034169;28;20431;-79
2023/01/21 01:20:43;;;;;;;42.72;18.48;;;-1.30;99.90;;;;;;5016633;28;20045;-80
2023/01/21 01:23:09;;;;;;;46.28;20.25;;;-1.30;99.90;;;;;;5034665;28;20052;-79
2023/01/21 01:25:36;;;;;;;42.97;19.40;;;-1.20;99.90;;;;;;5034577;28;20046;-80
2023/01/21 01:28:02;;;;;;;;;;;-1.30;99.90;;;;;;5017522;28;20379;-79
2023/01/21 01:30:28;;;;;;;51.25;20.00;;;-0.20;99.90;;;;;;5034442;28;20019;-80
2023/01/21 01:32:54;;;;;;;46.40;18.70;;;-1.00;99.90;;;;;;5016599;28;20557;-80
2023/01/21 01:35:19;;;;;;;48.08;18.65;;;-1.20;99.90;;;;;;5034441;28;20041;-79
2023/01/21 01:37:45;;;;;;;44.13;18.65;;;-1.20;99.90;;;;;;5034486;28;20053;-80
2023/01/21 01:40:11;;;;;;;45.83;19.80;;;-0.40;99.90;;;;;;5033900;28;20131;-80
2023/01/21 01:42:37;;;;;;;45.20;18.93;;;-1.10;99.90;;;;;;5034125;28;20463;-80
2023/01/21 01:45:06;;;;;;;52.33;20.20;;;-0.50;99.90;;;;;;5034020;28;20132;-79
2023/01/21 01:47:38;;;;;;;49.03;19.90;;;-1.10;99.90;;;;;;5033825;28;20132;-79
2023/01/21 01:50:06;;;;;;;43.95;18.25;;;-1.20;99.90;;;;;;5016945;28;20053;-80
2023/01/21 01:52:32;;;;;;;50.70;20.08;;;-1.10;99.90;;;;;;5016001;28;20045;-80
2023/01/21 01:55:01;;;;;;;52.17;20.58;;;-1.10;99.90;;;;;;5033836;28;20052;-79
2023/01/21 01:57:33;;;;;;;51.67;21.48;;;-1.90;99.90;;;;;;5033751;28;20041;-80
2023/01/21 02:00:05;;;;;;;50.45;22.73;;;-1.10;99.90;;;;;;5016015;28;20088;-80
2023/01/21 02:02:31;;;;;;;44.78;20.90;;;-1.10;99.90;;;;;;5033682;28;20045;-80
2023/01/21 02:05:01;;;;;;;44.13;19.95;;;-1.10;99.90;;;;;;5033338;28;20115;-80
2023/01/21 02:07:29;;;;;;;49.60;20.63;;;-1.10;99.90;;;;;;5016432;28;20041;-81
2023/01/21 02:09:54;;;;;;;54.55;21.08;;;-1.10;99.90;;;;;;5033718;28;20063;-80
2023/01/21 02:12:21;;;;;;;55.95;22.90;;;-1.10;99.90;;;;;;5032825;28;20474;-80
2023/01/21 02:14:47;;;;;;;53.08;21.58;;;-1.00;99.90;;;;;;5033446;28;20045;-80
2023/01/21 02:17:24;;;;;;;30.33;13.25;;;-0.80;99.90;;;;;;5016644;28;20053;-80
2023/01/21 02:20:08;;;;;;;55.50;22.45;;;-0.10;99.90;;;;;;5033768;28;20045;-80
2023/01/21 02:22:40;;;;;;;48.88;21.98;;;-1.10;99.90;;;;;;5033514;28;20429;-80
2023/01/21 02:25:24;;;;;;;54.88;22.40;;;-1.10;99.90;;;;;;5033378;28;20049;-80
2023/01/21 02:28:02;;;;;;;50.65;21.20;;;-1.10;99.90;;;;;;5033319;28;20045;-79
2023/01/21 02:31:00;;;;;;;57.97;22.73;;;-1.10;99.90;;;;;;5016203;28;20049;-80
2023/01/21 02:33:53;;;;;;;56.80;22.58;;;-1.00;99.90;;;;;;5017317;28;20064;-80
2023/01/21 02:36:50;;;;;;;59.60;22.92;;;-1.00;99.90;;;;;;5033206;28;20052;-80
2023/01/21 02:39:18;;;;;;;52.78;22.08;;;-1.10;99.90;;;;;;5015636;28;20049;-80
2023/01/21 02:42:03;;;;;;;56.78;23.05;;;-1.10;99.90;;;;;;5015603;28;20091;-80
2023/01/21 02:44:45;;;;;;;53.33;22.10;;;-1.10;99.90;;;;;;5016006;28;20481;-80
2023/01/21 02:47:10;;;;;;;54.55;20.83;;;-1.10;99.90;;;;;;5033549;28;20120;-79
2023/01/21 02:50:10;;;;;;;56.55;20.95;;;-1.00;99.90;;;;;;5033221;28;20152;-80
2023/01/21 02:52:35;;;;;;;59.95;22.58;;;-1.10;99.90;;;;;;4913982;28;20091;-80
2023/01/21 02:55:02;;;;;;;50.97;20.33;;;-0.60;99.90;;;;;;5015604;28;20080;-80
2023/01/21 02:57:46;;;;;;;51.50;20.52;;;-1.10;99.90;;;;;;5015989;28;20059;-80
2023/01/21 03:00:17;;;;;;;48.05;20.35;;;-1.00;99.90;;;;;;4999194;28;20041;-80
2023/01/21 03:03:15;;;;;;;54.33;20.02;;;-1.00;99.90;;;;;;5015433;28;20128;-80
2023/01/21 03:05:54;;;;;;;51.45;19.52;;;-1.00;99.90;;;;;;5010029;28;20108;-80
2023/01/21 03:08:22;;;;;;;52.88;20.08;;;-1.00;99.90;;;;;;5032792;28;20081;-79
2023/01/21 03:11:00;;;;;;;47.92;20.85;;;-1.00;99.90;;;;;;5033084;28;20452;-80
2023/01/21 03:19:16;;;;;;;58.38;21.75;;;-0.90;99.90;;;;;;5015578;28;20049;-80
2023/01/21 03:21:42;;;;;;;51.42;20.67;;;-0.60;99.90;;;;;;5015401;28;20474;-81
2023/01/21 03:24:12;;;;;;;51.95;19.98;;;-1.40;99.90;;;;;;5016867;28;20049;-79
2023/01/21 03:26:42;;;;;;;52.15;19.80;;;-0.90;99.90;;;;;;5036756;28;20352;-80
2023/01/21 03:29:21;;;;;;;49.25;20.00;;;-0.90;99.90;;;;;;5018776;28;20077;-79
2023/01/21 03:31:53;;;;;;;56.25;21.25;;;-0.90;99.90;;;;;;5018506;28;20055;-80
2023/01/21 03:34:23;;;;;;;47.10;19.67;;;-0.90;99.90;;;;;;5036058;28;20490;-79
2023/01/21 03:37:08;;;;;;;54.25;21.65;;;-1.00;99.90;;;;;;5018158;28;20077;-81
2023/01/21 03:39:42;;;;;;;52.72;20.67;;;-0.90;99.90;;;;;;5035735;28;20531;-80
2023/01/21 03:42:12;;;;;;;50.80;20.42;;;-0.80;99.90;;;;;;5036203;28;20041;-80
2023/01/21 03:44:38;;;;;;;49.17;20.20;;;-0.80;99.90;;;;;;5035768;28;20049;-79
2023/01/21 03:47:04;;;;;;;53.75;20.52;;;-1.30;99.90;;;;;;5018732;28;20080;-80
2023/01/21 03:49:48;;;;;;;50.85;19.83;;;-0.70;99.90;;;;;;5036113;28;20135;-80
2023/01/21 03:52:16;;;;;;;54.70;20.42;;;-0.20;99.90;;;;;;5018269;28;20058;-80
2023/01/21 03:54:41;;;;;;;54.60;20.92;;;-0.70;99.90;;;;;;5035908;28;20057;-80
2023/01/21 03:57:07;;;;;;;50.50;19.88;;;-0.40;99.90;;;;;;5035672;28;20524;-80
2023/01/21 03:59:32;;;;;;;55.25;20.65;;;-0.60;99.90;;;;;;5018464;28;20044;-81
2023/01/21 04:01:58;;;;;;;51.97;19.38;;;-0.60;99.90;;;;;;5018374;28;20429;-80
2023/01/21 04:04:24;;;;;;;55.28;20.50;;;-0.60;99.90;;;;;;5031904;28;20049;-80
2023/01/21 04:06:49;;;;;;;50.88;20.35;;;-0.60;99.90;;;;;;5035842;28;20128;-80
2023/01/21 04:09:15;;;;;;;59.85;21.23;;;-0.30;99.90;;;;;;5035650;28;20460;-80
2023/01/21 04:11:40;;;;;;;58.40;22.08;;;-0.30;99.90;;;;;;5001455;28;20049;-80
2023/01/21 04:14:06;;;;;;;55.03;20.45;;;-0.50;99.90;;;;;;5035635;28;20128;-80
2023/01/21 04:16:32;;;;;;;52.83;20.63;;;-0.50;99.90;;;;;;5035291;28;20055;-80
2023/01/21 04:18:57;;;;;;;52.95;20.48;;;-0.50;99.90;;;;;;5035511;28;20053;-80
2023/01/21 04:21:23;;;;;;;50.80;21.73;;;-0.60;99.90;;;;;;5035512;28;20219;-81
2023/01/21 04:23:48;;;;;;;53.97;20.05;;;-0.50;99.90;;;;;;5017868;28;20045;-80
2023/01/21 04:26:15;;;;;;;53.50;21.45;;;-0.80;99.90;;;;;;5017957;28;20091;-80
2023/01/21 04:28:41;;;;;;;52.95;20.73;;;-0.70;99.90;;;;;;5017820;28;20045;-81
2023/01/21 04:31:07;;;;;;;50.60;20.87;;;0.40;99.90;;;;;;5035277;28;20044;-80
2023/01/21 04:33:32;;;;;;;50.10;19.63;;;-0.50;99.90;;;;;;5018328;28;20376;-80
2023/01/21 04:35:59;;;;;;;54.15;20.13;;;0.20;99.90;;;;;;5034346;28;20521;-80
2023/01/21 04:38:25;;;;;;;52.92;20.40;;;0.10;99.90;;;;;;5035132;28;20065;-80
2023/01/21 04:40:51;;;;;;;53.25;21.27;;;-0.50;99.90;;;;;;5001200;28;20045;-80
2023/01/21 04:43:17;;;;;;;51.95;20.15;;;-0.50;99.90;;;;;;5035098;28;20107;-80
2023/01/21 04:45:42;;;;;;;46.90;20.38;;;-0.50;99.90;;;;;;5035076;28;20077;-80
2023/01/21 04:48:08;;;;;;;46.30;19.38;;;-1.20;99.90;;;;;;5017421;28;20045;-80
2023/01/21 04:50:33;;;;;;;48.65;19.33;;;-0.60;99.90;;;;;;5034985;28;20131;-80
2023/01/21 04:52:59;;;;;;;47.45;20.20;;;-0.70;99.90;;;;;;5035095;28;20045;-81
2023/01/21 04:55:25;;;;;;;45.60;17.75;;;-0.80;99.90;;;;;;5017416;28;20509;-81
2023/01/21 04:57:50;;;;;;;51.40;18.55;;;-0.80;99.90;;;;;;5017069;28;20045;-81
2023/01/21 05:00:16;;;;;;;48.47;20.75;;;-1.60;99.90;;;;;;5034469;28;20045;-82
2023/01/21 05:02:42;;;;;;;49.20;19.00;;;-0.90;99.90;;;;;;5000414;28;20049;-80
2023/01/21 05:05:08;;;;;;;46.67;18.92;;;-0.70;99.90;;;;;;5017376;28;20104;-81
2023/01/21 05:07:33;;;;;;;53.88;19.23;;;-1.00;99.90;;;;;;5034725;28;20045;-80
2023/01/21 05:09:59;;;;;;;43.95;19.85;;;-1.00;99.90;;;;;;5034379;28;20053;-81
2023/01/21 05:12:25;;;;;;;48.17;20.02;;;-0.10;99.90;;;;;;5000557;28;20080;-80
2023/01/21 05:14:56;;;;;;;46.65;19.10;;;-1.00;99.90;;;;;;5034891;28;20144;-84
2023/01/21 05:17:22;;;;;;;46.72;19.08;;;-1.00;99.90;;;;;;5016942;28;20042;-84
2023/01/21 05:19:49;;;;;;;51.47;19.55;;;-1.00;99.90;;;;;;5016403;28;20099;-82
2023/01/21 05:22:15;;;;;;;55.22;22.23;;;0.40;99.90;;;;;;5016605;28;20075;-82
2023/01/21 05:24:41;;;;;;;47.60;18.60;;;-1.60;99.90;;;;;;5016979;28;20045;-81
2023/01/21 05:27:06;;;;;;;50.13;19.38;;;-0.90;99.90;;;;;;5016648;28;20077;-83
2023/01/21 05:29:32;;;;;;;52.95;21.42;;;-0.80;99.90;;;;;;5016901;28;20046;-80
2023/01/21 05:31:57;;;;;;;51.95;19.98;;;-0.70;99.90;;;;;;5034273;28;20501;-82
2023/01/21 05:34:23;;;;;;;54.55;20.63;;;-0.80;99.90;;;;;;5016900;28;20064;-82
2023/01/21 05:36:49;;;;;;;49.85;19.83;;;-0.70;99.90;;;;;;5000088;28;20057;-79
2023/01/21 05:39:14;;;;;;;57.08;20.60;;;-0.70;99.90;;;;;;5033954;28;20468;-82
2023/01/21 05:41:40;;;;;;;56.15;18.75;;;-0.70;99.90;;;;;;5010209;28;20045;-80
2023/01/21 05:44:08;;;;;;;52.58;19.33;;;-0.60;99.90;;;;;;5015687;28;20075;-81
2023/01/21 05:46:35;;;;;;;55.80;21.23;;;-0.60;99.90;;;;;;5016014;28;20045;-82
2023/01/21 05:49:00;;;;;;;46.70;19.23;;;-0.60;99.90;;;;;;5032539;28;20148;-80
2023/01/21 05:51:26;;;;;;;47.33;19.13;;;-1.10;99.90;;;;;;5032579;28;20095;-83
2023/01/21 05:53:52;;;;;;;52.25;20.30;;;-0.60;99.90;;;;;;5015843;28;20042;-81
2023/01/21 05:56:17;;;;;;;49.45;20.52;;;-0.50;99.90;;;;;;5016401;28;20037;-81
2023/01/21 05:58:43;;;;;;;46.42;18.90;;;-0.40;99.90;;;;;;5034218;28;20045;-81
2023/01/21 06:01:09;;;;;;;50.65;21.13;;;-0.50;99.90;;;;;;5016851;28;20045;-83
2023/01/21 06:03:36;;;;;;;49.28;20.55;;;-0.50;99.90;;;;;;5016148;28;20045;-84
2023/01/21 06:06:02;;;;;;;;;;;-0.50;99.90;;;;;;5034048;28;20056;-81
2023/01/21 06:08:28;;;;;;;52.70;20.02;;;-0.50;99.90;;;;;;5033681;28;19921;-84
2023/01/21 06:10:55;;;;;;;49.20;20.10;;;-0.50;99.90;;;;;;5016087;28;20041;-81
2023/01/21 06:13:20;;;;;;;;;;;0.40;99.90;;;;;;5034378;28;20068;-82
2023/01/21 06:15:46;;;;;;;47.53;18.35;;;-0.50;99.90;;;;;;5033634;28;19921;-79
2023/01/21 06:18:12;;;;;;;48.80;19.35;;;-0.40;99.90;;;;;;5033799;28;20099;-80
2023/01/21 06:20:38;;;;;;;46.85;20.48;;;;;;;;;;5033377;28;20045;-81
2023/01/21 06:23:04;;;;;;;47.47;19.52;;;-0.40;99.90;;;;;;5033618;28;20057;-81
2023/01/21 06:25:29;;;;;;;44.67;18.27;;;-0.40;99.90;;;;;;5016048;28;20037;-82
2023/01/21 06:27:56;;;;;;;51.17;20.05;;;0.70;99.90;;;;;;5015800;28;20038;-81
2023/01/21 06:30:23;;;;;;;47.42;20.95;;;-0.50;99.90;;;;;;5033844;28;20397;-82
2023/01/21 06:32:48;;;;;;;54.53;19.95;;;-0.50;99.90;;;;;;5015981;28;20049;-81
2023/01/21 06:35:14;;;;;;;61.85;21.88;;;-0.50;99.90;;;;;;5033343;28;20049;-82
2023/01/21 06:37:44;;;;;;;54.60;22.13;;;-0.50;99.90;;;;;;5033606;28;20058;-83
2023/01/21 06:40:10;;;;;;;57.90;22.23;;;-0.50;99.90;;;;;;5033206;28;20045;-82
2023/01/21 06:42:36;;;;;;;49.88;20.65;;;-0.50;99.90;;;;;;5033389;28;20054;-79
2023/01/21 06:45:02;;;;;;;48.17;19.23;;;-0.50;99.90;;;;;;5033677;28;20057;-80
2023/01/21 06:47:27;;;;;;;53.25;20.30;;;-0.50;99.90;;;;;;5033207;28;20477;-80
2023/01/21 06:49:53;;;;;;;47.08;20.35;;;-0.50;99.90;;;;;;5033189;28;20406;-81
2023/01/21 06:52:18;;;;;;;47.63;19.83;;;-0.50;99.90;;;;;;5015947;28;20052;-83
2023/01/21 06:54:44;;;;;;;52.83;19.77;;;-0.20;99.90;;;;;;5015700;28;20057;-80
2023/01/21 06:57:10;;;;;;;45.28;19.17;;;-0.50;99.90;;;;;;5033237;28;20042;-82
2023/01/21 06:59:36;;;;;;;53.28;21.10;;;-0.30;99.90;;;;;;5035895;28;20060;-80
2023/01/21 07:02:02;;;;;;;47.72;19.17;;;-0.30;99.90;;;;;;5036996;28;20486;-82
2023/01/21 07:04:28;;;;;;;49.30;19.38;;;-0.20;99.90;;;;;;5036985;28;20474;-83
2023/01/21 07:06:53;;;;;;;50.17;21.08;;;0.20;99.90;;;;;;5036996;28;20053;-82
2023/01/21 07:09:19;;;;;;;43.30;18.83;;;-0.30;99.90;;;;;;5019355;28;20041;-81
2023/01/21 07:11:46;;;;;;;48.97;20.20;;;-0.30;99.90;;;;;;5036885;28;20051;-82
2023/01/21 07:14:11;;;;;;;53.10;21.47;;;-0.30;99.90;;;;;;5036922;28;20141;-83
2023/01/21 07:16:37;;;;;;;47.20;20.60;;;0.70;99.90;;;;;;5019605;28;20485;-81
2023/01/21 07:19:03;;;;;;;47.20;19.23;;;-0.30;99.90;;;;;;5036907;28;20049;-82
2023/01/21 07:21:28;;;;;;;44.20;17.92;;;-0.30;99.90;;;;;;5019157;28;20075;-83
2023/01/21 07:23:54;;;;;;;46.17;19.88;;;1.00;99.90;;;;;;5019291;28;20132;-81
2023/01/21 07:26:21;;;;;;;45.83;19.60;;;-0.20;99.90;;;;;;5036482;28;20092;-83
2023/01/21 07:28:47;;;;;;;45.55;21.00;;;0.60;99.90;;;;;;5036493;28;20046;-82
2023/01/21 07:31:13;;;;;;;46.50;19.35;;;-0.20;99.90;;;;;;5036575;28;20044;-82
2023/01/21 07:33:39;;;;;;;45.78;18.35;;;0.30;99.90;;;;;;5036406;28;20135;-85
2023/01/21 07:36:06;;;;;;;50.60;19.55;;;-0.10;99.90;;;;;;5018876;28;20045;-82
2023/01/21 07:38:31;;;;;;;45.50;19.77;;;-0.10;99.90;;;;;;5036304;28;20065;-84
2023/01/21 07:40:57;;;;;;;56.20;23.65;;;-0.10;99.90;;;;;;5018454;28;20072;-80
2023/01/21 07:43:23;;;;;;;60.03;24.00;;;0.20;99.90;;;;;;4986210;28;20049;-83
2023/01/21 07:45:49;;;;;;;49.55;22.25;;;-0.20;99.90;;;;;;5019097;28;20049;-83
2023/01/21 07:48:15;;;;;;;51.80;21.42;;;-0.20;99.90;;;;;;5036089;28;20048;-83
2023/01/21 07:50:41;;;;;;;46.20;19.90;;;1.20;99.90;;;;;;5018552;28;20167;-81
2023/01/21 07:53:06;;;;;;;44.95;19.17;;;-0.20;99.90;;;;;;5018609;28;20091;-82
2023/01/21 07:55:32;;;;;;;51.22;20.95;;;-0.30;99.90;;;;;;5018562;28;20050;-83
2023/01/21 07:57:58;;;;;;;45.17;18.80;;;-0.30;99.90;;;;;;5018858;28;20136;-83
2023/01/21 08:00:26;;;;;;;48.13;18.77;;;-0.60;99.90;;;;;;5018328;28;20050;-81
2023/01/21 08:02:55;;;;;;;50.17;18.90;;;-0.20;99.90;;;;;;5035888;28;20685;-83
2023/01/21 08:05:22;;;;;;;44.63;18.55;;;-0.20;99.90;;;;;;5035794;28;20553;-82
2023/01/21 08:07:48;;;;;;;;;;;-0.10;99.90;;;;;;5018765;28;20045;-81
2023/01/21 08:10:14;;;;;;;44.40;19.52;;;-0.10;99.90;;;;;;5034614;28;20354;-82
2023/01/21 08:12:40;;;;;;;46.40;19.10;;;-0.10;99.90;;;;;;5019047;28;20049;-81
2023/01/21 08:15:07;;;;;;;45.42;18.77;;;-0.10;99.90;;;;;;5018408;28;20049;-82
2023/01/21 08:17:33;;;;;;;51.03;19.55;;;0.00;99.90;;;;;;5035923;28;20451;-80
2023/01/21 08:19:58;;;;;;;47.05;19.02;;;0.00;99.90;;;;;;5018193;28;20077;-80
2023/01/21 08:22:24;;;;;;;47.47;20.58;;;-0.10;99.90;;;;;;5035779;28;20046;-81
2023/01/21 08:24:50;;;;;;;49.97;18.42;;;-0.10;99.90;;;;;;5035588;28;20041;-83
2023/01/21 08:27:16;;;;;;;43.30;19.35;;;0.30;99.90;;;;;;5035490;28;20526;-82
2023/01/21 08:29:42;;;;;;;46.55;19.45;;;-0.10;99.90;;;;;;5017819;28;20033;-83
2023/01/21 08:32:08;;;;;;;42.40;18.55;;;0.00;99.90;;;;;;5017966;28;20504;-80
2023/01/21 08:34:33;;;;;;;47.80;19.70;;;0.00;99.90;;;;;;5035383;28;20089;-82
2023/01/21 08:36:59;;;;;;;47.90;20.73;;;0.90;99.90;;;;;;5035085;28;20528;-80
2023/01/21 08:39:25;;;;;;;49.83;21.23;;;0.00;99.90;;;;;;5017511;28;20050;-82
2023/01/21 08:41:51;;;;;;;46.35;19.67;;;0.00;99.90;;;;;;5017909;28;20445;-83
2023/01/21 08:44:16;;;;;;;43.40;19.08;;;0.00;99.90;;;;;;5035069;28;20052;-83
2023/01/21 08:46:42;;;;;;;41.40;19.92;;;0.00;99.90;;;;;;5017756;28;20038;-81
2023/01/21 08:49:08;;;;;;;41.80;16.85;;;0.00;99.90;;;;;;5034969;28;20056;-83
2023/01/21 08:51:33;;;;;;;47.65;20.25;;;0.10;99.90;;;;;;5001202;28;20477;-80
2023/01/21 08:53:59;;;;;;;41.92;17.25;;;0.50;99.90;;;;;;5034840;28;20485;-82
2023/01/21 08:56:24;;;;;;;47.22;18.73;;;0.00;99.90;;;;;;5017411;28;20052;-80
2023/01/21 08:58:55;;;;;;;42.10;18.88;;;0.10;99.90;;;;;;5017874;28;20052;-79
2023/01/21 09:01:20;;;;;;;38.95;17.77;;;0.10;99.90;;;;;;5034709;28;20056;-83
2023/01/21 09:03:46;;;;;;;40.55;17.35;;;0.10;99.90;;;;;;5017366;28;20474;-82
2023/01/21 09:06:12;;;;;;;37.22;16.63;;;0.10;99.90;;;;;;5017056;28;20049;-80
2023/01/21 09:08:38;;;;;;;40.53;17.30;;;0.10;99.90;;;;;;5034581;28;20080;-81
2023/01/21 09:11:05;;;;;;;48.07;19.30;;;0.30;99.90;;;;;;5034542;28;20121;-81
2023/01/21 09:13:38;;;;;;;39.33;17.33;;;0.20;99.90;;;;;;5034875;28;20397;-83
2023/01/21 09:16:08;;;;;;;42.38;17.77;;;0.20;99.90;;;;;;5034497;28;20056;-83
2023/01/21 09:18:34;;;;;;;36.60;17.25;;;0.30;99.90;;;;;;5034474;28;20091;-80
2023/01/21 09:21:04;;;;;;;35.88;16.13;;;0.20;99.90;;;;;;5016619;28;20437;-84
2023/01/21 09:23:33;;;;;;;42.00;17.38;;;0.30;99.90;;;;;;5017019;28;20052;-83
2023/01/21 09:26:07;;;;;;;37.78;17.15;;;0.30;99.90;;;;;;5017403;28;20060;-83
2023/01/21 09:28:35;;;;;;;39.47;17.60;;;0.20;99.90;;;;;;5034359;28;20042;-81
2023/01/21 09:31:07;;;;;;;46.20;17.40;;;0.30;99.90;;;;;;5016572;28;20049;-83
2023/01/21 09:33:34;;;;;;;32.60;16.88;;;0.30;99.90;;;;;;5016750;28;20045;-80
2023/01/21 09:36:02;;;;;;;32.88;15.57;;;0.40;99.90;;;;;;5034106;28;20052;-83
2023/01/21 09:38:29;;;;;;;38.03;16.58;;;0.70;99.90;;;;;;5034307;28;20068;-83
2023/01/21 09:41:18;;;;;;;46.22;17.80;;;1.20;99.90;;;;;;5033924;28;20049;-84
2023/01/21 09:43:50;;;;;;;37.38;15.88;;;0.40;99.90;;;;;;4999090;28;20061;-82
2023/01/21 09:46:26;;;;;;;37.13;16.83;;;0.40;99.90;;;;;;5016257;28;20456;-80
2023/01/21 09:48:53;;;;;;;37.28;17.27;;;0.40;99.90;;;;;;5033961;28;20056;-81
2023/01/21 09:51:24;;;;;;;37.10;16.73;;;0.40;99.90;;;;;;5016687;28;20041;-81
2023/01/21 09:53:56;;;;;;;38.20;17.58;;;0.70;99.90;;;;;;5016426;28;20048;-83
2023/01/21 09:56:34;;;;;;;33.85;15.90;;;0.50;99.90;;;;;;5033658;28;20099;-82
2023/01/21 09:59:09;;;;;;;39.92;17.42;;;0.50;99.90;;;;;;5033722;28;20339;-80
2023/01/21 10:01:39;;;;;;;39.55;16.60;;;0.50;99.90;;;;;;5033724;28;20046;-81
2023/01/21 10:04:32;;;;;;;38.15;15.45;;;1.60;99.90;;;;;;5016282;28;20041;-84
2023/01/21 10:07:39;;;;;;;37.50;16.00;;;0.60;99.90;;;;;;5033734;28;20046;-82
2023/01/21 10:10:36;;;;;;;30.10;14.00;;;0.60;99.90;;;;;;5033894;28;20037;-80
2023/01/21 10:13:20;;;;;;;33.92;14.93;;;0.60;99.90;;;;;;5033719;28;20128;-81
2023/01/21 10:15:55;;;;;;;30.73;15.40;;;0.60;99.90;;;;;;5016075;28;20049;-83
2023/01/21 10:18:29;;;;;;;37.15;16.58;;;0.70;99.90;;;;;;5033820;28;20045;-83
2023/01/21 10:21:05;;;;;;;41.88;17.95;;;0.70;99.90;;;;;;5033524;28;20042;-82
2023/01/21 10:23:37;;;;;;;37.78;17.10;;;0.70;99.90;;;;;;5033352;28;20553;-80
2023/01/21 10:26:08;;;;;;;39.45;17.20;;;1.30;99.90;;;;;;5015875;28;20288;-80
2023/01/21 10:28:40;;;;;;;37.03;16.88;;;0.80;99.90;;;;;;5033168;28;20490;-81
2023/01/21 10:31:19;;;;;;;37.78;15.13;;;0.80;99.90;;;;;;5033157;28;20485;-82
2023/01/21 10:33:44;;;;;;;37.33;16.23;;;0.90;99.90;;;;;;5016637;28;20045;-80
2023/01/21 10:36:13;;;;;;;38.03;16.25;;;0.90;99.90;;;;;;5020034;28;20417;-83
2023/01/21 10:38:51;;;;;;;30.92;13.57;;;1.00;99.90;;;;;;4999738;28;20403;-83
2023/01/21 10:41:36;;;;;;;36.60;14.90;;;1.10;99.90;;;;;;5000160;28;20050;-81
2023/01/21 10:44:14;;;;;;;34.17;15.57;;;1.10;99.90;;;;;;5017560;28;20085;-81
2023/01/21 10:46:53;;;;;;;37.67;15.98;;;1.10;99.90;;;;;;5017577;28;20096;-81
2023/01/21 10:49:34;;;;;;;40.22;17.95;;;1.10;99.90;;;;;;5018000;28;20037;-81
2023/01/21 10:52:13;;;;;;;36.92;16.77;;;1.10;99.90;;;;;;5017540;28;20046;-82
2023/01/21 10:54:44;;;;;;;34.65;16.58;;;1.10;99.90;;;;;;5017312;28;20057;-81
2023/01/21 10:57:34;;;;;;;40.50;18.48;;;1.20;99.90;;;;;;5017597;28;20049;-83
2023/01/21 11:00:01;;;;;;;42.80;17.08;;;1.20;99.90;;;;;;5004151;28;20050;-81
2023/01/21 11:02:32;;;;;;;37.75;17.70;;;2.00;99.90;;;;;;5017451;28;20041;-81
2023/01/21 11:05:02;;;;;;;34.22;15.90;;;1.40;99.90;;;;;;5017296;28;20050;-81
2023/01/21 11:07:34;;;;;;;48.95;18.80;;;1.50;99.90;;;;;;5017341;28;20402;-80
2023/01/21 11:10:01;;;;;;;40.35;18.77;;;1.60;99.90;;;;;;5000013;28;20057;-81
2023/01/21 11:12:29;;;;;;;38.75;17.77;;;2.20;99.90;;;;;;5017085;28;20050;-82
2023/01/21 11:15:01;;;;;;;33.63;15.98;;;1.80;99.90;;;;;;4999849;28;20061;-83
2023/01/21 11:17:30;;;;;;;36.47;16.80;;;2.00;99.90;;;;;;5016663;28;20506;-82
2023/01/21 11:20:01;;;;;;;36.05;16.65;;;2.20;99.90;;;;;;5016809;28;20046;-82
2023/01/21 11:22:31;;;;;;;30.63;15.90;;;2.30;99.90;;;;;;5016691;28;20507;-80
2023/01/21 11:24:58;;;;;;;28.83;15.90;;;2.40;99.90;;;;;;4983224;28;20057;-82
2023/01/21 11:27:36;;;;;;;31.10;16.15;;;2.40;99.90;;;;;;5016718;28;20062;-82
2023/01/21 11:30:02;;;;;;;34.75;17.38;;;2.50;99.90;;;;;;4999122;28;20513;-84
2023/01/21 11:32:29;;;;;;;33.95;17.20;;;2.60;99.90;;;;;;4999175;28;20054;-81
2023/01/21 11:35:07;;;;;;;31.75;16.13;;;2.60;99.90;;;;;;5016510;28;20049;-81
2023/01/21 11:37:33;;;;;;;30.35;15.82;;;2.70;99.90;;;;;;5026525;28;20092;-83
2023/01/21 11:40:20;;;;;;;31.13;14.88;;;2.80;99.90;;;;;;5035076;28;20091;-83
2023/01/21 11:42:51;;;;;;;29.08;16.48;;;2.90;99.90;;;;;;5017861;28;20041;-82
2023/01/21 11:45:25;;;;;;;29.33;15.13;;;2.90;99.90;;;;;;5017270;28;20049;-84
2023/01/21 11:47:52;;;;;;;30.58;16.00;;;2.90;99.90;;;;;;5034992;28;20131;-83
2023/01/21 11:50:24;;;;;;;35.47;16.80;;;2.90;99.90;;;;;;5034873;28;20107;-81
2023/01/21 11:53:13;;;;;;;26.88;15.07;;;3.00;99.90;;;;;;5034956;28;20057;-80
2023/01/21 11:55:40;;;;;;;26.77;15.23;;;3.10;99.90;;;;;;5035061;28;20436;-81
2023/01/21 11:58:22;;;;;;;32.00;15.55;;;3.10;99.90;;;;;;5034846;28;20064;-82
2023/01/21 12:00:51;;;;;;;32.30;15.50;;;3.10;99.90;;;;;;5035246;28;20049;-82
2023/01/21 12:03:20;;;;;;;30.00;15.23;;;3.10;99.90;;;;;;5017430;28;20042;-81
2023/01/21 12:05:51;;;;;;;32.28;16.73;;;3.00;99.90;;;;;;5017511;28;20501;-82
2023/01/21 12:08:26;;;;;;;33.92;16.58;;;3.00;99.90;;;;;;5000691;28;20489;-83
2023/01/21 12:10:54;;;;;;;31.33;15.88;;;3.00;99.90;;;;;;5034877;28;20092;-83
2023/01/21 12:13:40;;;;;;;32.17;17.80;;;3.00;99.90;;;;;;5035900;28;20493;-82
2023/01/21 12:16:33;;;;;;;34.25;17.20;;;3.00;99.90;;;;;;5036091;28;20502;-83
2023/01/21 12:19:37;;;;;;;31.42;16.30;;;3.00;99.90;;;;;;5003346;28;20045;-81
2023/01/21 12:22:30;;;;;;;29.80;15.52;;;3.00;99.90;;;;;;5047865;28;20049;-82
2023/01/21 12:25:12;;;;;;;33.92;16.35;;;3.00;99.90;;;;;;5056307;28;20041;-84
2023/01/21 12:28:16;;;;;;;29.55;15.75;;;3.00;99.90;;;;;;5037475;28;20390;-81
2023/01/21 12:31:03;;;;;;;28.20;14.93;;;3.10;99.90;;;;;;5000770;28;20180;-82
2023/01/21 12:33:29;;;;;;;28.50;14.30;;;3.80;99.90;;;;;;5034479;28;20133;-81
2023/01/21 12:35:58;;;;;;;25.98;13.77;;;3.10;99.90;;;;;;5017009;28;20549;-84
2023/01/21 12:38:29;;;;;;;24.27;12.70;;;3.20;99.90;;;;;;4964476;28;1067650;-84
2023/01/21 12:41:09;;;;;;;25.77;14.38;;;3.20;99.90;;;;;;5036082;28;20038;-82
2023/01/21 12:43:39;;;;;;;25.67;14.77;;;3.20;99.90;;;;;;5019978;28;20045;-79
2023/01/21 12:46:34;;;;;;;26.45;14.13;;;3.30;99.90;;;;;;5018942;28;20034;-82
2023/01/21 12:49:27;;;;;;;23.13;11.35;;;3.30;99.90;;;;;;5017764;28;20075;-82
2023/01/21 12:51:58;;;;;;;23.88;12.43;;;3.30;99.90;;;;;;5035545;28;20513;-81
2023/01/21 12:54:28;;;;;;;21.95;12.63;;;3.30;99.90;;;;;;5001845;28;20085;-82